Time;durP1;ratioP1;P1;durP2;ratioP2;P2;SDS_P1;SDS_P2;PMS_P1;PMS_P2;Temp;Humidity;BMP_temperature;BMP_pressure;BME280_temperature;BME280_humidity;BME280_pressure;Samples;Min_cycle;Max_cycle;Signal;HPM_P1;HPM_P2
2022/06/18 00:03:59;;;;;;;3.47;2.50;;;23.00;75.70;;;;;;10506802;28;20020;-56
2022/06/18 00:09:01;;;;;;;4.20;2.70;;;22.90;75.70;;;;;;10510697;28;21714;-57
2022/06/18 00:14:01;;;;;;;3.33;2.58;;;22.90;75.80;;;;;;10510398;28;20109;-57
2022/06/18 00:19:02;;;;;;;3.20;2.50;;;22.90;75.80;;;;;;10506645;28;20093;-56
2022/06/18 00:24:13;;;;;;;3.42;2.50;;;22.90;75.90;;;;;;10503297;28;20067;-63
2022/06/18 00:29:17;;;;;;;3.15;2.60;;;22.80;76.50;;;;;;10503499;28;20040;-56
2022/06/18 00:34:18;;;;;;;2.95;2.60;;;22.80;76.00;;;;;;10508797;28;20023;-56
2022/06/18 00:39:19;;;;;;;3.00;2.70;;;22.80;76.00;;;;;;10510286;28;20504;-61
2022/06/18 00:44:31;;;;;;;3.60;2.80;;;22.80;76.00;;;;;;10509922;28;20027;-60
2022/06/18 00:49:48;;;;;;;3.13;2.83;;;22.70;76.00;;;;;;10506202;28;20112;-57
2022/06/18 00:55:15;;;;;;;4.25;3.13;;;22.70;76.10;;;;;;10501467;28;20051;-56
2022/06/18 01:00:28;;;;;;;3.38;2.65;;;22.70;76.20;;;;;;10504366;28;20081;-58
2022/06/18 01:05:38;;;;;;;3.88;2.90;;;22.60;76.10;;;;;;10505474;28;20116;-61
2022/06/18 01:10:42;;;;;;;4.93;3.08;;;22.60;76.20;;;;;;10504107;28;20020;-62
2022/06/18 01:15:45;;;;;;;3.65;2.67;;;22.60;76.80;;;;;;10502763;28;20040;-57
2022/06/18 01:20:50;;;;;;;3.13;2.70;;;22.60;76.20;;;;;;10508992;28;20024;-57
2022/06/18 01:25:52;;;;;;;2.80;2.50;;;22.50;76.20;;;;;;10506516;28;20575;-61
2022/06/18 01:30:53;;;;;;;3.22;2.85;;;22.50;76.20;;;;;;10507514;28;20374;-57
2022/06/18 01:35:54;;;;;;;2.90;2.60;;;22.50;76.30;;;;;;10506081;28;20040;-57
2022/06/18 01:41:49;;;;;;;2.90;2.60;;;22.50;76.30;;;;;;10507463;28;20377;-58
2022/06/18 01:46:19;;;;;;;3.38;2.72;;;22.40;76.30;;;;;;10509532;28;20081;-57
2022/06/18 01:51:26;;;;;;;4.82;3.10;;;22.40;76.30;;;;;;10512710;28;20028;-57
2022/06/18 01:56:32;;;;;;;3.80;2.97;;;22.40;76.30;;;;;;10512112;28;20036;-57
2022/06/18 02:01:36;;;;;;;3.22;2.97;;;22.40;76.40;;;;;;10511354;28;20028;-58
2022/06/18 02:06:38;;;;;;;3.47;3.00;;;22.40;76.50;;;;;;10515455;28;20020;-61
2022/06/18 02:11:39;;;;;;;5.35;3.45;;;22.30;76.40;;;;;;10514234;28;20024;-59
2022/06/18 02:16:46;;;;;;;3.95;3.38;;;22.30;76.50;;;;;;10515280;28;20064;-56
2022/06/18 02:21:54;;;;;;;4.90;3.30;;;22.30;76.60;;;;;;10506238;28;20150;-59
2022/06/18 02:26:56;;;;;;;3.95;3.33;;;22.30;76.60;;;;;;10511743;28;20077;-56
2022/06/18 02:31:58;;;;;;;3.92;3.22;;;22.20;76.60;;;;;;10516645;28;20017;-56
2022/06/18 02:37:01;;;;;;;4.82;3.55;;;22.20;76.70;;;;;;10512368;28;20454;-56
2022/06/18 02:42:08;;;;;;;3.67;3.10;;;22.20;76.70;;;;;;10511528;28;20032;-57
2022/06/18 02:47:11;;;;;;;3.95;3.50;;;22.10;76.80;;;;;;10513112;28;20027;-63
2022/06/18 02:52:13;;;;;;;3.85;3.40;;;22.10;76.80;;;;;;10507870;28;20025;-59
2022/06/18 02:57:22;;;;;;;3.70;3.30;;;22.10;76.90;;;;;;10507386;28;20048;-62
2022/06/18 03:02:23;;;;;;;4.15;3.63;;;22.10;77.00;;;;;;10515095;28;20020;-62
2022/06/18 03:07:24;;;;;;;5.47;3.72;;;22.00;77.00;;;;;;10512944;28;20496;-59
2022/06/18 03:12:25;;;;;;;5.28;3.83;;;22.00;77.10;;;;;;10510639;28;20081;-59
2022/06/18 03:17:26;;;;;;;4.28;3.67;;;22.00;77.20;;;;;;10509365;28;20127;-57
2022/06/18 03:22:27;;;;;;;4.10;3.67;;;22.00;77.20;;;;;;10506156;28;20036;-56
2022/06/18 03:27:27;;;;;;;4.05;3.42;;;22.00;77.30;;;;;;10511309;28;20028;-57
2022/06/18 03:32:28;;;;;;;5.20;4.00;;;21.90;77.40;;;;;;10508143;28;20025;-63
2022/06/18 03:37:29;;;;;;;4.28;3.88;;;21.90;77.40;;;;;;10507808;28;20511;-61
2022/06/18 03:42:29;;;;;;;4.40;3.63;;;21.90;77.50;;;;;;10505459;28;20035;-62
2022/06/18 03:47:30;;;;;;;7.78;4.13;;;21.90;77.60;;;;;;10437843;28;20028;-59
2022/06/18 03:52:31;;;;;;;4.93;3.75;;;21.90;77.60;;;;;;10417349;28;20235;-56
2022/06/18 03:57:32;;;;;;;5.13;4.05;;;21.90;77.70;;;;;;10408466;28;20900;-56
2022/06/18 04:02:32;;;;;;;4.43;3.92;;;21.90;77.70;;;;;;10417000;28;20023;-56
2022/06/18 04:07:33;;;;;;;4.65;4.10;;;21.80;77.70;;;;;;10414524;28;20032;-56
2022/06/18 04:12:34;;;;;;;5.68;4.00;;;21.80;77.80;;;;;;10414237;28;20886;-56
2022/06/18 04:17:34;;;;;;;4.20;3.80;;;21.80;77.90;;;;;;10416307;28;21098;-58
2022/06/18 04:22:35;;;;;;;4.35;3.92;;;21.80;78.10;;;;;;10409042;28;20362;-56
2022/06/18 04:27:36;;;;;;;6.20;3.95;;;21.80;78.00;;;;;;10416496;28;20631;-56
2022/06/18 04:32:37;;;;;;;4.88;3.50;;;21.80;78.10;;;;;;10413388;28;20028;-56
2022/06/18 04:37:41;;;;;;;6.18;4.25;;;21.80;78.10;;;;;;10415641;28;20028;-56
2022/06/18 04:42:41;;;;;;;7.32;3.97;;;21.80;78.20;;;;;;10418013;28;20171;-60
2022/06/18 04:47:42;;;;;;;6.25;4.28;;;21.80;78.40;;;;;;10414136;28;20037;-57
2022/06/18 04:52:43;;;;;;;6.72;3.70;;;21.80;78.40;;;;;;10413590;28;20655;-59
2022/06/18 04:57:44;;;;;;;4.10;3.60;;;21.80;78.40;;;;;;10415951;28;20760;-56
2022/06/18 05:02:45;;;;;;;8.93;4.45;;;21.80;78.50;;;;;;10414294;28;20101;-56
2022/06/18 05:07:46;;;;;;;6.15;4.07;;;21.70;78.40;;;;;;10414695;28;20916;-56
2022/06/18 05:12:47;;;;;;;5.90;3.75;;;21.80;78.50;;;;;;10414616;28;20060;-56
2022/06/18 05:17:48;;;;;;;6.75;4.18;;;21.70;78.50;;;;;;10410478;28;20083;-56
2022/06/18 05:22:49;;;;;;;5.72;4.55;;;21.70;78.50;;;;;;10423053;28;20189;-57
2022/06/18 05:27:50;;;;;;;6.28;3.90;;;21.80;78.60;;;;;;10424615;28;20024;-60
2022/06/18 05:32:52;;;;;;;5.10;3.80;;;21.70;78.60;;;;;;10428992;28;20762;-56
2022/06/18 05:37:52;;;;;;;6.38;4.03;;;21.80;78.60;;;;;;10433443;28;20920;-57
2022/06/18 05:42:54;;;;;;;6.10;3.85;;;21.70;78.60;;;;;;10428993;28;20036;-56
2022/06/18 05:47:55;;;;;;;6.78;4.00;;;21.70;78.60;;;;;;10425155;28;21000;-57
2022/06/18 05:52:56;;;;;;;5.03;4.05;;;21.70;78.60;;;;;;10422811;28;20059;-58
2022/06/18 05:57:58;;;;;;;6.88;4.25;;;21.60;78.50;;;;;;10423885;28;20574;-58
2022/06/18 06:02:59;;;;;;;6.28;3.85;;;21.70;78.60;;;;;;10421714;28;20028;-60
2022/06/18 06:08:00;;;;;;;5.32;3.80;;;21.80;78.70;;;;;;10429487;28;20059;-56
2022/06/18 06:13:01;;;;;;;4.72;3.42;;;21.80;78.60;;;;;;10423535;28;21012;-56
2022/06/18 06:18:02;;;;;;;4.30;3.58;;;21.80;78.60;;;;;;10429143;28;20039;-59
2022/06/18 06:23:02;;;;;;;4.35;3.20;;;21.80;78.50;;;;;;10424435;28;20056;-56
2022/06/18 06:28:03;;;;;;;5.72;4.05;;;21.80;78.50;;;;;;10420669;28;20249;-56
2022/06/18 06:33:04;;;;;;;5.72;3.60;;;21.80;78.50;;;;;;10422244;28;20035;-57
2022/06/18 06:38:05;;;;;;;4.88;3.70;;;21.80;78.60;;;;;;10415118;28;20051;-56
2022/06/18 06:43:07;;;;;;;4.97;4.15;;;21.80;78.60;;;;;;10422871;28;20064;-56
2022/06/18 06:48:08;;;;;;;4.75;3.75;;;21.80;78.60;;;;;;10421226;28;20617;-61
2022/06/18 06:53:10;;;;;;;5.97;3.78;;;21.60;78.40;;;;;;10429803;28;20025;-57
2022/06/18 06:58:11;;;;;;;4.93;3.45;;;21.80;78.60;;;;;;10430494;28;20671;-59
2022/06/18 07:03:14;;;;;;;11.07;6.85;;;21.80;78.50;;;;;;10432208;28;20940;-60
2022/06/18 07:08:14;;;;;;;16.10;9.20;;;21.90;79.20;;;;;;10429762;28;20117;-61
2022/06/18 07:13:15;;;;;;;20.08;9.57;;;21.70;80.40;;;;;;10428501;28;20116;-62
2022/06/18 07:18:20;;;;;;;16.17;9.20;;;21.50;81.80;;;;;;10433080;28;20040;-61
2022/06/18 07:23:20;;;;;;;17.10;9.75;;;21.50;82.30;;;;;;10426523;28;20028;-63
2022/06/18 07:28:21;;;;;;;13.93;8.18;;;21.40;82.70;;;;;;10426533;28;20617;-60
2022/06/18 07:33:26;;;;;;;11.02;7.05;;;21.40;83.10;;;;;;10428983;28;20893;-60
2022/06/18 07:38:27;;;;;;;12.32;7.15;;;21.40;83.60;;;;;;10453218;28;20126;-62
2022/06/18 07:43:40;;;;;;;14.23;7.50;;;21.40;83.70;;;;;;10415323;28;20032;-61
2022/06/18 07:48:43;;;;;;;18.13;6.20;;;21.40;84.90;;;;;;10424504;28;20283;-59
2022/06/18 07:53:44;;;;;;;13.05;6.47;;;21.40;84.20;;;;;;10430349;28;20047;-60
2022/06/18 07:58:45;;;;;;;12.00;5.90;;;21.40;84.50;;;;;;10419066;28;20117;-62
2022/06/18 08:03:45;;;;;;;15.63;7.15;;;21.60;84.80;;;;;;10417418;28;20023;-60
2022/06/18 08:08:46;;;;;;;11.07;6.07;;;21.60;84.90;;;;;;10416764;28;20032;-59
2022/06/18 08:13:49;;;;;;;14.13;6.60;;;21.70;85.20;;;;;;10424369;28;20036;-59
2022/06/18 08:18:50;;;;;;;10.45;5.38;;;21.80;85.20;;;;;;10415564;28;20040;-59
2022/06/18 08:23:55;;;;;;;9.30;5.90;;;21.90;85.40;;;;;;10417484;28;20296;-61
2022/06/18 08:28:56;;;;;;;12.77;6.03;;;21.90;85.90;;;;;;10411004;28;20450;-60
2022/06/18 08:33:57;;;;;;;8.15;4.28;;;22.00;86.20;;;;;;10415888;28;20097;-60
2022/06/18 08:38:58;;;;;;;11.95;4.40;;;22.10;86.40;;;;;;10420738;28;20040;-63
2022/06/18 08:44:14;;;;;;;6.80;5.18;;;22.20;86.00;;;;;;10425993;28;20142;-61
2022/06/18 08:49:32;;;;;;;7.97;4.65;;;22.20;86.20;;;;;;10427466;28;21045;-63
2022/06/18 08:54:52;;;;;;;9.05;5.25;;;22.30;86.30;;;;;;10422051;28;20314;-61
2022/06/18 09:00:06;;;;;;;12.50;5.32;;;22.30;86.70;;;;;;10415331;28;20032;-59
2022/06/18 09:05:16;;;;;;;10.07;5.07;;;22.40;86.90;;;;;;10422377;28;20034;-59
2022/06/18 09:10:26;;;;;;;10.02;4.53;;;22.50;86.90;;;;;;10424314;28;20059;-59
2022/06/18 09:15:49;;;;;;;9.07;4.93;;;22.50;87.20;;;;;;10421266;28;20048;-59
2022/06/18 09:20:55;;;;;;;9.38;4.50;;;22.50;88.60;;;;;;10417381;28;20027;-59
2022/06/18 09:25:58;;;;;;;6.57;4.32;;;22.60;87.70;;;;;;10415324;28;21027;-60
2022/06/18 09:31:08;;;;;;;6.43;3.83;;;22.70;87.60;;;;;;10424895;28;20124;-59
2022/06/18 09:36:25;;;;;;;6.07;3.03;;;22.90;87.50;;;;;;10413581;28;20040;-58
2022/06/18 09:41:33;;;;;;;6.97;3.42;;;22.90;87.20;;;;;;10411283;28;20032;-56
2022/06/18 09:47:00;;;;;;;4.78;3.28;;;22.90;86.80;;;;;;10417191;28;20027;-59
2022/06/18 09:52:11;;;;;;;4.22;3.30;;;23.00;86.80;;;;;;10409750;28;20024;-55
2022/06/18 09:57:17;;;;;;;8.07;2.90;;;23.00;86.50;;;;;;10410924;28;20380;-56
2022/06/18 10:02:22;;;;;;;5.78;2.88;;;23.00;86.30;;;;;;10408896;28;20283;-55
2022/06/18 10:07:25;;;;;;;6.47;2.95;;;23.00;86.00;;;;;;10412703;28;20027;-57
2022/06/18 10:12:38;;;;;;;4.53;2.90;;;23.10;85.90;;;;;;10416983;28;20369;-57
2022/06/18 10:17:50;;;;;;;4.05;2.80;;;23.10;85.80;;;;;;10417656;28;20032;-55
2022/06/18 10:23:03;;;;;;;4.72;2.60;;;23.20;85.70;;;;;;10418645;28;20031;-57
2022/06/18 10:28:21;;;;;;;3.25;2.17;;;23.20;85.50;;;;;;10421672;28;20036;-56
2022/06/18 10:33:32;;;;;;;3.80;2.55;;;23.20;85.40;;;;;;10418517;28;20028;-55
2022/06/18 10:38:38;;;;;;;3.78;2.50;;;23.20;85.20;;;;;;10414355;28;20079;-60
2022/06/18 10:43:54;;;;;;;6.30;3.47;;;23.30;85.00;;;;;;10418882;28;20117;-60
2022/06/18 10:49:01;;;;;;;5.85;3.78;;;23.40;86.00;;;;;;10430965;28;20570;-59
2022/06/18 10:54:02;;;;;;;6.73;3.20;;;23.60;86.30;;;;;;10424790;28;20020;-58
2022/06/18 10:59:03;;;;;;;5.65;3.10;;;23.80;85.70;;;;;;10425264;28;20044;-59
2022/06/18 11:04:18;;;;;;;5.93;3.00;;;24.10;85.50;;;;;;10413792;28;20626;-58
2022/06/18 11:09:36;;;;;;;6.13;3.05;;;24.10;85.30;;;;;;10418335;28;20034;-59
2022/06/18 11:14:42;;;;;;;5.80;2.95;;;24.10;85.30;;;;;;10419246;28;20047;-59
2022/06/18 11:19:48;;;;;;;4.88;3.45;;;24.30;85.60;;;;;;10425833;28;20098;-57
2022/06/18 11:25:00;;;;;;;5.80;3.60;;;24.40;84.70;;;;;;10421425;28;20025;-59
2022/06/18 11:30:08;;;;;;;6.18;3.47;;;24.50;84.70;;;;;;10418301;28;20032;-58
2022/06/18 11:35:08;;;;;;;6.25;2.60;;;24.70;84.90;;;;;;10417369;28;20031;-63
2022/06/18 11:40:19;;;;;;;7.00;2.75;;;24.70;84.30;;;;;;10419247;28;20594;-59
2022/06/18 11:45:55;;;;;;;5.82;2.47;;;24.80;84.00;;;;;;10416300;28;20206;-60
2022/06/18 11:51:19;;;;;;;6.13;3.72;;;24.80;84.70;;;;;;10404081;28;20036;-60
2022/06/18 11:56:34;;;;;;;6.35;2.20;;;24.90;83.80;;;;;;10412206;28;20594;-60
2022/06/18 12:01:40;;;;;;;4.30;2.17;;;24.90;83.30;;;;;;10420885;28;20859;-59
2022/06/18 12:06:57;;;;;;;3.78;1.98;;;25.00;83.40;;;;;;10421112;28;20259;-59
2022/06/18 12:12:19;;;;;;;4.87;1.97;;;25.10;83.40;;;;;;10424806;28;20032;-59
2022/06/18 12:17:45;;;;;;;4.72;2.22;;;25.30;84.00;;;;;;10423855;28;20287;-58
2022/06/18 12:22:54;;;;;;;4.18;2.00;;;25.50;84.00;;;;;;10414991;28;20036;-62
2022/06/18 12:28:08;;;;;;;6.43;2.22;;;25.60;83.10;;;;;;10411177;28;20020;-59
2022/06/18 12:33:20;;;;;;;8.52;2.40;;;25.70;82.90;;;;;;10413093;28;20058;-59
2022/06/18 12:38:39;;;;;;;5.47;2.38;;;25.70;82.20;;;;;;10418550;28;20949;-60
2022/06/18 12:43:45;;;;;;;6.03;2.22;;;25.40;82.40;;;;;;10412606;28;20136;-58
2022/06/18 12:49:12;;;;;;;17.58;3.25;;;25.40;83.20;;;;;;10412752;28;20032;-61
2022/06/18 12:54:31;;;;;;;24.33;4.00;;;25.60;82.70;;;;;;10418371;28;20063;-61
2022/06/18 12:59:32;;;;;;;26.55;4.45;;;25.60;83.10;;;;;;10416179;28;20244;-58
2022/06/18 13:04:45;;;;;;;48.92;6.88;;;25.70;82.70;;;;;;10409893;28;20035;-58
2022/06/18 13:10:12;;;;;;;11.38;3.33;;;25.80;83.20;;;;;;10407380;28;20252;-60
2022/06/18 13:15:27;;;;;;;3.72;2.28;;;25.90;81.90;;;;;;10415472;28;20507;-59
2022/06/18 13:20:40;;;;;;;1.83;1.70;;;25.80;82.60;;;;;;10417340;28;20698;-59
2022/06/18 13:31:30;;;;;;;4.28;1.52;;;25.90;82.50;;;;;;10408486;28;20036;-59
2022/06/18 13:36:43;;;;;;;7.95;2.00;;;25.90;82.40;;;;;;10408872;28;20048;-59
2022/06/18 13:42:02;;;;;;;7.00;2.40;;;25.70;82.70;;;;;;10416856;28;20051;-59
2022/06/18 13:47:03;;;;;;;4.78;1.80;;;25.60;82.80;;;;;;10425257;28;20245;-59
2022/06/18 13:52:06;;;;;;;5.90;1.88;;;25.70;83.10;;;;;;10427262;28;20044;-58
2022/06/18 13:57:08;;;;;;;5.03;1.73;;;25.70;82.70;;;;;;10422366;28;20054;-60
2022/06/18 14:02:43;;;;;;;6.10;2.33;;;25.70;82.60;;;;;;10418185;28;20139;-59
2022/06/18 14:07:51;;;;;;;2.67;1.98;;;25.60;81.60;;;;;;10418232;28;20043;-58
2022/06/18 14:12:53;;;;;;;;;;;25.60;82.70;;;;;;10419117;28;20040;-60
2022/06/18 14:17:57;;;;;;;5.65;1.88;;;25.80;83.00;;;;;;10423003;28;20757;-58
2022/06/18 14:23:07;;;;;;;7.65;1.70;;;25.80;82.20;;;;;;10419405;28;20106;-62
2022/06/18 14:28:23;;;;;;;5.78;1.70;;;25.80;82.00;;;;;;10419530;28;20953;-58
2022/06/18 14:33:50;;;;;;;6.88;1.52;;;26.00;81.60;;;;;;10413968;28;20931;-62
2022/06/18 14:38:53;;;;;;;9.70;2.38;;;25.90;81.50;;;;;;10375269;28;20102;-59
2022/06/18 14:44:31;;;;;;;53.30;6.03;;;25.70;82.10;;;;;;10425049;28;20139;-60
2022/06/18 14:49:50;;;;;;;8.13;1.60;;;25.50;81.60;;;;;;10406644;28;20044;-58
2022/06/18 14:55:10;;;;;;;3.55;1.20;;;25.50;82.00;;;;;;10432435;28;20028;-58
2022/06/18 15:00:52;;;;;;;4.65;1.10;;;25.50;81.90;;;;;;10417917;28;20052;-58
2022/06/18 15:06:00;;;;;;;2.22;1.30;;;25.40;81.80;;;;;;10411877;28;20036;-59
2022/06/18 15:11:03;;;;;;;;;;;25.30;81.90;;;;;;10424288;28;20043;-59
2022/06/18 15:26:33;;;;;;;4.82;1.52;;;25.50;81.60;;;;;;10415333;28;20028;-59
2022/06/18 15:31:39;;;;;;;14.20;2.00;;;25.30;81.50;;;;;;10418599;28;20231;-58
2022/06/18 15:36:40;;;;;;;4.60;1.90;;;25.10;81.30;;;;;;10411133;28;20943;-57
2022/06/18 15:41:51;;;;;;;5.95;1.85;;;24.90;81.60;;;;;;10417438;28;20858;-58
2022/06/18 15:46:57;;;;;;;1.95;1.30;;;24.70;80.50;;;;;;10415373;28;20543;-58
2022/06/18 15:51:59;;;;;;;6.05;2.15;;;24.50;80.90;;;;;;10426726;28;20074;-58
2022/06/18 15:57:20;;;;;;;4.07;1.50;;;24.40;80.90;;;;;;10417110;28;20028;-64
2022/06/18 16:02:22;;;;;;;4.20;1.73;;;24.10;80.20;;;;;;10410893;28;20953;-58
2022/06/18 16:07:23;;;;;;;5.85;1.40;;;23.90;81.20;;;;;;10426165;28;20043;-59
2022/06/18 16:12:27;;;;;;;6.30;1.60;;;23.60;81.40;;;;;;10412743;28;20109;-60
2022/06/18 16:17:32;;;;;;;10.25;3.50;;;23.50;81.40;;;;;;10417458;28;20036;-58
2022/06/18 16:22:36;;;;;;;8.13;3.88;;;23.40;81.00;;;;;;10414793;28;20133;-58
2022/06/18 16:27:38;;;;;;;6.70;2.47;;;23.30;80.90;;;;;;10414827;28;20424;-59
2022/06/18 16:32:41;;;;;;;30.30;10.57;;;23.20;80.60;;;;;;10414154;28;20028;-61
2022/06/18 16:37:41;;;;;;;10.68;4.30;;;23.00;81.30;;;;;;10426052;28;20070;-59
2022/06/18 16:43:06;;;;;;;21.27;9.38;;;23.00;80.70;;;;;;10415529;28;20021;-59
2022/06/18 16:48:42;;;;;;;42.92;16.38;;;22.80;79.80;;;;;;10440654;28;20567;-58
2022/06/18 16:53:50;;;;;;;7.97;2.88;;;22.70;79.80;;;;;;10431430;28;20911;-58
2022/06/18 16:58:51;;;;;;;9.70;1.48;;;22.60;80.40;;;;;;10415155;28;20121;-60
2022/06/18 17:03:51;;;;;;;3.60;1.45;;;22.60;80.20;;;;;;10411598;28;20024;-58
2022/06/18 17:08:53;;;;;;;5.90;1.92;;;22.60;79.90;;;;;;10415413;28;20513;-60
2022/06/18 17:13:54;;;;;;;4.35;1.30;;;22.60;79.40;;;;;;10415490;28;20253;-59
2022/06/18 17:18:55;;;;;;;4.00;1.67;;;22.50;79.10;;;;;;10413122;28;20135;-62
2022/06/18 17:34:35;;;;;;;6.38;1.90;;;22.30;79.60;;;;;;10408993;28;20151;-60
2022/06/18 17:39:36;;;;;;;14.93;1.90;;;22.20;79.90;;;;;;10398125;28;20265;-59
2022/06/18 17:44:37;;;;;;;14.40;1.88;;;22.10;80.00;;;;;;10414562;28;20115;-61
2022/06/18 17:49:38;;;;;;;4.72;1.33;;;22.00;80.30;;;;;;10415888;28;20039;-61
2022/06/18 17:54:40;;;;;;;4.95;1.40;;;21.90;80.50;;;;;;10409705;28;20035;-60
2022/06/18 17:59:41;;;;;;;4.55;1.40;;;21.70;80.90;;;;;;10409070;28;20032;-61
2022/06/18 18:04:43;;;;;;;5.65;1.65;;;21.50;81.20;;;;;;10408112;28;20024;-59
2022/06/18 18:09:46;;;;;;;9.40;1.42;;;21.40;81.40;;;;;;10404811;28;20378;-63
2022/06/18 18:14:52;;;;;;;6.13;1.60;;;21.20;81.70;;;;;;10418915;28;21053;-62
2022/06/18 18:19:53;;;;;;;5.57;1.88;;;21.10;81.60;;;;;;10413245;28;20046;-61
2022/06/18 18:24:54;;;;;;;4.70;1.20;;;20.90;81.70;;;;;;10417002;28;20040;-61
2022/06/18 18:29:55;;;;;;;7.15;1.30;;;20.80;81.70;;;;;;10412954;28;20058;-61
2022/06/18 18:34:56;;;;;;;8.32;1.73;;;20.60;82.00;;;;;;10415557;28;20032;-63
2022/06/18 18:39:57;;;;;;;7.22;1.88;;;20.50;82.00;;;;;;10415099;28;20052;-61
2022/06/18 18:44:59;;;;;;;6.15;1.65;;;20.40;82.20;;;;;;10414115;28;20392;-61
2022/06/18 18:50:00;;;;;;;4.18;1.63;;;20.40;82.20;;;;;;10417553;28;20051;-62
2022/06/18 18:55:00;;;;;;;8.38;1.95;;;20.30;82.40;;;;;;10416411;28;20579;-62
2022/06/18 19:00:02;;;;;;;7.22;1.95;;;20.20;82.50;;;;;;10413264;28;20796;-61
2022/06/18 19:05:05;;;;;;;5.88;1.90;;;19.90;82.40;;;;;;10414388;28;22113;-60
2022/06/18 19:10:07;;;;;;;3.83;1.35;;;19.60;82.30;;;;;;10428724;28;20590;-59
2022/06/18 19:15:08;;;;;;;8.68;1.75;;;19.50;82.00;;;;;;10413558;28;20663;-62
2022/06/18 19:20:12;;;;;;;11.00;2.10;;;19.40;81.90;;;;;;10414372;28;20042;-61
2022/06/18 19:25:13;;;;;;;9.75;2.22;;;19.40;81.70;;;;;;10406611;28;20374;-60
2022/06/18 19:30:17;;;;;;;5.53;1.60;;;19.30;81.80;;;;;;10407570;28;20025;-61
2022/06/18 19:35:20;;;;;;;10.30;1.42;;;19.30;81.90;;;;;;10420037;28;20139;-61
2022/06/18 19:40:27;;;;;;;12.35;2.25;;;19.10;81.90;;;;;;10421151;28;20052;-61
2022/06/18 19:45:28;;;;;;;11.98;1.92;;;19.00;82.10;;;;;;10411724;28;20464;-61
2022/06/18 19:50:30;;;;;;;7.15;1.40;;;18.80;82.40;;;;;;10419095;28;20126;-66
2022/06/18 19:55:31;;;;;;;9.70;2.45;;;18.70;82.40;;;;;;10413839;28;20554;-61
2022/06/18 20:00:33;;;;;;;5.85;1.55;;;18.70;82.10;;;;;;10415847;28;20047;-61
2022/06/18 20:05:34;;;;;;;4.57;1.40;;;18.50;82.00;;;;;;10412498;28;20032;-61
2022/06/18 20:10:35;;;;;;;5.22;1.60;;;18.30;82.10;;;;;;10413955;28;20016;-61
2022/06/18 20:15:36;;;;;;;6.45;1.50;;;18.30;82.20;;;;;;10413831;28;20045;-61
2022/06/18 20:20:38;;;;;;;9.93;1.55;;;18.30;81.90;;;;;;10414882;28;20155;-60
2022/06/18 20:25:39;;;;;;;6.50;1.38;;;18.20;81.80;;;;;;10435998;28;20031;-63
2022/06/18 20:30:40;;;;;;;8.48;1.48;;;18.20;81.70;;;;;;10505831;28;20107;-61
2022/06/18 20:35:46;;;;;;;9.32;1.58;;;18.10;81.70;;;;;;10502259;28;20054;-59
2022/06/18 20:41:02;;;;;;;8.63;1.65;;;18.20;81.70;;;;;;10508489;28;20042;-60
2022/06/18 20:46:06;;;;;;;6.63;1.45;;;18.70;80.90;;;;;;10506847;28;20413;-60
2022/06/18 20:51:13;;;;;;;4.43;1.40;;;19.10;80.00;;;;;;10502631;28;20025;-59
2022/06/18 21:01:33;;;;;;;5.40;1.23;;;19.70;79.00;;;;;;10512698;28;20031;-60
2022/06/18 21:06:33;;;;;;;6.32;1.42;;;19.90;78.80;;;;;;10500920;28;20025;-60
2022/06/18 21:11:34;;;;;;;3.70;1.25;;;20.10;78.60;;;;;;10511297;28;20682;-57
2022/06/18 21:16:36;;;;;;;4.22;1.25;;;20.20;78.50;;;;;;10510672;28;20546;-60
2022/06/18 21:21:41;;;;;;;7.47;1.20;;;20.30;78.50;;;;;;10511219;28;20063;-57
2022/06/18 21:26:41;;;;;;;5.00;1.08;;;20.40;78.30;;;;;;10509072;28;20024;-58
2022/06/18 21:37:03;;;;;;;7.50;1.17;;;20.50;78.20;;;;;;10509602;28;20395;-58
2022/06/18 21:42:06;;;;;;;8.30;1.58;;;20.50;78.10;;;;;;10509978;28;20099;-57
2022/06/18 21:47:09;;;;;;;7.97;1.63;;;20.60;78.10;;;;;;10501462;28;20036;-59
2022/06/18 21:52:10;;;;;;;3.13;1.50;;;20.60;78.10;;;;;;10504096;28;20028;-61
2022/06/18 21:57:25;;;;;;;5.32;1.20;;;20.60;78.00;;;;;;10506941;28;20189;-60
2022/06/18 22:02:26;;;;;;;4.35;1.42;;;20.60;77.90;;;;;;10504205;28;20016;-59
2022/06/18 22:07:27;;;;;;;4.93;1.17;;;20.60;78.00;;;;;;10513338;28;20413;-61
2022/06/18 22:17:47;;;;;;;5.55;1.30;;;20.60;78.00;;;;;;10511554;28;20477;-58
2022/06/18 22:22:48;;;;;;;6.88;1.15;;;20.60;78.00;;;;;;10518300;28;20026;-57
2022/06/18 22:27:49;;;;;;;6.07;1.40;;;20.60;78.00;;;;;;10512915;28;20089;-57
2022/06/18 22:32:51;;;;;;;5.47;1.38;;;20.60;78.00;;;;;;10507850;28;20103;-59
2022/06/18 22:37:52;;;;;;;6.32;1.35;;;20.60;78.00;;;;;;10504822;28;20047;-57
2022/06/18 22:42:54;;;;;;;4.75;1.20;;;20.60;78.00;;;;;;10510734;28;20650;-58
2022/06/18 22:47:56;;;;;;;2.53;1.00;;;20.60;78.00;;;;;;10504624;28;20035;-62
2022/06/18 22:58:23;;;;;;;3.67;0.98;;;20.60;78.00;;;;;;10511431;28;20032;-60
2022/06/18 23:03:24;;;;;;;4.95;1.02;;;20.50;77.90;;;;;;10506464;28;20397;-58
2022/06/18 23:08:25;;;;;;;5.20;1.30;;;20.50;78.00;;;;;;10505316;28;20039;-59
2022/06/18 23:13:26;;;;;;;4.65;1.70;;;20.50;78.00;;;;;;10503358;28;20060;-61
2022/06/18 23:18:26;;;;;;;3.13;0.90;;;20.50;78.00;;;;;;10509651;28;20082;-58
2022/06/18 23:23:27;;;;;;;5.65;1.38;;;20.50;78.00;;;;;;10506714;28;20035;-57
2022/06/18 23:28:28;;;;;;;6.65;1.15;;;20.40;78.00;;;;;;10508968;28;20028;-58
2022/06/18 23:33:28;;;;;;;7.05;0.90;;;20.40;78.00;;;;;;10504166;28;20480;-61
2022/06/18 23:38:31;;;;;;;3.25;1.13;;;20.40;78.00;;;;;;10510700;28;20040;-58
2022/06/18 23:43:35;;;;;;;3.67;1.13;;;20.40;78.00;;;;;;10508623;28;20830;-58
2022/06/18 23:48:37;;;;;;;4.25;1.23;;;20.30;77.90;;;;;;10508359;28;20039;-58
2022/06/18 23:53:38;;;;;;;2.03;0.82;;;20.30;78.00;;;;;;10512230;28;20597;-62
2022/06/18 23:58:40;;;;;;;5.75;0.90;;;20.30;78.00;;;;;;10507351;28;20164;-59
